createdAt,value
2019-03-22T10:03:54.427Z,977.1
2019-03-22T10:13:58.140Z,976.9
2019-03-22T10:24:01.682Z,976.7
2019-03-22T10:34:05.445Z,976.1
2019-03-22T10:44:09.176Z,975.7
2019-03-22T10:54:12.725Z,975.1
2019-03-22T11:04:16.274Z,974.7
2019-03-22T11:14:19.806Z,974.4
2019-03-22T11:24:23.314Z,974.3
2019-03-22T11:34:26.825Z,974.1
2019-03-22T11:44:30.327Z,973.8
2019-03-22T11:54:33.826Z,974
2019-03-22T12:04:37.282Z,973.8
2019-03-22T12:14:40.786Z,973.5
2019-03-22T12:24:44.281Z,972.9
2019-03-22T12:34:47.791Z,972.3
2019-03-22T12:44:51.300Z,971.8
2019-03-22T12:54:54.799Z,971.3
2019-03-22T13:04:58.280Z,971
2019-03-22T13:15:01.796Z,970.7
2019-03-22T13:25:05.357Z,970.5
2019-03-22T13:35:08.861Z,970.2
2019-03-22T13:45:12.366Z,970.2
2019-03-22T13:55:15.880Z,969.8
2019-03-22T14:05:19.343Z,969.7
2019-03-22T14:15:22.836Z,969.3
2019-03-22T14:25:27.837Z,969.2
2019-03-22T14:35:31.338Z,969.2
2019-03-22T14:45:34.822Z,969
2019-03-22T14:55:38.317Z,969
2019-03-22T15:05:41.790Z,968.8
2019-03-22T15:15:45.298Z,968.7
2019-03-22T15:25:48.796Z,968.6
2019-03-22T15:35:52.700Z,968.5
2019-03-22T15:45:56.249Z,968.4
2019-03-22T15:55:59.771Z,968.2
2019-03-22T16:06:03.263Z,968.1
2019-03-22T16:16:06.767Z,975.2
2019-03-22T16:26:10.284Z,975.1
2019-03-22T16:36:13.800Z,975
2019-03-22T16:46:17.311Z,974.9
2019-03-22T16:56:20.809Z,975
2019-03-22T17:06:24.302Z,975
2019-03-22T17:16:27.799Z,974.9
2019-03-22T17:26:31.308Z,975
2019-03-22T17:36:34.835Z,974.9
2019-03-22T17:46:38.378Z,974.9
2019-03-22T17:56:41.887Z,975.1
2019-03-22T18:06:45.358Z,975
2019-03-22T18:16:48.889Z,975.1
2019-03-22T18:26:52.384Z,975.2
2019-03-22T18:36:55.918Z,975.3
2019-03-22T18:46:59.429Z,975.3
2019-03-22T18:57:02.952Z,975.4
2019-03-22T19:07:06.456Z,975.3
2019-03-22T19:17:09.977Z,975.3
2019-03-22T19:27:13.495Z,975.4
2019-03-22T19:37:17.002Z,975.3
2019-03-22T19:47:20.511Z,975.4
2019-03-22T19:57:24.078Z,975.4
2019-03-22T20:07:27.609Z,975.5
2019-03-22T20:17:31.125Z,975.5
2019-03-22T20:27:34.645Z,975.6
2019-03-22T20:37:38.145Z,975.6
2019-03-22T20:47:41.664Z,975.8
2019-03-22T20:57:45.180Z,975.7
2019-03-22T21:07:48.700Z,975.6
2019-03-22T21:17:52.225Z,975.8
2019-03-22T21:27:55.738Z,975.8
2019-03-22T21:38:10.061Z,968.6
2019-03-22T21:48:13.903Z,968.6
2019-03-22T21:58:17.441Z,968.7
2019-03-22T22:08:20.947Z,968.7
2019-03-22T22:18:24.455Z,968.9
2019-03-22T22:28:27.972Z,968.9
2019-03-22T22:38:31.490Z,969
2019-03-22T22:48:34.999Z,969.2
2019-03-22T22:58:38.558Z,969.2
2019-03-22T23:08:42.085Z,969.4
2019-03-22T23:18:45.601Z,969.5
2019-03-22T23:28:49.113Z,969.6
2019-03-22T23:38:52.654Z,969.8
2019-03-22T23:48:56.183Z,969.9
2019-03-22T23:58:59.685Z,970
